Latest Weather Observations for Camden

IDN60801

Issued at 7:04 pm EST Wednesday 29 June 2016 (issued every 30 minutes, with the page automatically refreshed every 10 minutes)

About weather observations | Map of weather stations | Latest weather observations for NSW | Other Formats
Station Details ID: 068192 Name: CAMDEN AIRPORT AWS Lat: -34.04 Lon: 150.69 Height: 73.9 m
Data from the previous 72 hours. | See also: Recent months at Camden
Date/Time
EST
Temp
°C
App
Temp
°C
Dew
Point
°C
Rel
Hum
%
Delta-T
°C
Wind Press
QNH
hPa
Press
MSL
hPa
Rain since
9am
mm
Dir  Spd
km/h
Gust
km/h
Spd
kts
Gust
kts
29/07:00pm 7.3 6.1 4.8 84 1.1 CALM 0 0 0 0 1025.8 1025.9 0.0
29/06:30pm 9.1 6.7 4.5 73 2.0 S 6 7 3 4 1025.7 1025.8 0.0
29/06:00pm 9.3 8.0 4.1 70 2.3 CALM 0 0 0 0 1025.4 1025.5 0.0
29/05:30pm 11.8 9.4 4.1 59 3.5 NE 6 6 3 3 1025.3 1025.4 0.0
29/05:00pm 13.5 11.0 3.6 51 4.4 NE 6 7 3 4 1025.2 1025.3 0.0
29/04:30pm 15.7 12.9 3.2 43 5.7 NE 7 9 4 5 1025.2 1025.3 0.0
29/04:00pm 16.7 13.3 1.6 36 6.7 NNE 9 15 5 8 1025.2 1025.3 0.0
29/03:30pm 17.6 15.0 3.1 38 6.7 NE 6 11 3 6 1025.1 1025.2 0.0
29/03:00pm 17.7 14.7 2.1 35 7.0 NNE 7 13 4 7 1025.1 1025.2 0.0
29/02:30pm 17.9 15.1 1.8 34 7.3 N 6 11 3 6 1025.1 1025.2 0.0
29/02:00pm 17.6 14.8 2.0 35 7.0 NNE 6 13 3 7 1025.2 1025.3 0.0
29/01:30pm 17.6 14.7 2.4 36 6.9 NNE 7 11 4 6 1025.5 1025.6 0.0
29/01:00pm 17.8 14.9 2.5 36 7.0 NNE 7 13 4 7 1025.9 1026.0 0.0
29/12:30pm 17.1 14.5 3.4 40 6.4 NW 6 9 3 5 1026.3 1026.4 0.0
29/12:00pm 16.3 14.1 5.3 48 5.2 N 6 9 3 5 1026.8 1026.9 0.0
29/11:30am 14.9 13.0 4.9 51 4.7 NNW 4 9 2 5 1027.2 1027.3 0.0
29/11:00am 14.1 13.0 5.2 55 4.2 CALM 0 0 0 0 1027.7 1027.8 0.0
29/10:30am 12.1 10.9 4.6 60 3.4 CALM 0 0 0 0 1028.2 1028.3 0.0
29/10:00am 11.2 10.0 4.7 64 2.9 CALM 0 0 0 0 1028.5 1028.6 0.0
29/09:30am 8.3 7.0 4.1 75 1.8 CALM 0 0 0 0 1028.7 1028.8 0.0
29/09:00am 5.8 4.4 3.6 86 0.9 CALM 0 0 0 0 1028.5 1028.6 0.0
29/08:30am 3.7 2.1 2.5 92 0.5 CALM 0 0 0 0 1028.4 1028.5 0.0
29/08:00am 2.2 0.5 2.1 99 0.0 CALM 0 0 0 0 1028.3 1028.4 0.0
29/07:30am 0.8 -1.1 0.7 99 0.0 CALM 0 0 0 0 1028.1 1028.2 0.0
29/07:00am 0.1 -1.9 -0.2 98 0.1 CALM 0 0 0 0 1027.8 1027.9 0.0
29/06:30am 0.3 -1.7 0.0 98 0.1 CALM 0 0 0 0 1027.7 1027.8 0.0
29/06:00am 0.6 -1.3 0.3 98 0.1 CALM 0 0 0 0 1027.6 1027.7 0.0
29/05:30am 0.6 -1.3 0.3 98 0.1 CALM 0 0 0 0 1027.3 1027.4 0.0
29/05:00am 0.0 -2.0 -0.4 97 0.1 CALM 0 7 0 4 1027.2 1027.3 0.0
29/04:30am 0.2 -1.8 -0.2 97 0.1 CALM 0 6 0 3 1027.0 1027.1 0.0
29/04:00am 0.8 -1.1 0.4 97 0.1 CALM 0 0 0 0 1026.7 1026.8 0.0
29/03:30am 0.4 -1.6 -0.3 95 0.3 CALM 0 0 0 0 1026.9 1027.0 0.0
29/03:00am 1.1 -0.8 0.7 97 0.1 CALM 0 0 0 0 1027.0 1027.1 0.0
29/02:30am 1.4 -0.5 0.8 96 0.2 CALM 0 0 0 0 1027.0 1027.1 0.0
29/02:00am 1.5 -0.4 0.8 95 0.3 CALM 0 0 0 0 1027.1 1027.2 0.0
29/01:30am 1.3 -0.7 0.0 91 0.5 CALM 0 0 0 0 1027.1 1027.2 0.0
29/01:00am 1.9 -0.4 0.3 89 0.6 SE 2 7 1 4 1027.2 1027.3 0.0
29/12:30am 3.3 1.7 2.3 93 0.4 CALM 0 0 0 0 1027.4 1027.5 0.0
29/12:00am 3.0 0.0 2.0 93 0.4 S 7 9 4 5 1027.4 1027.5 0.0
 
Date/Time
EST
Temp
°C
App
Temp
°C
Dew
Point
°C
Rel
Hum
%
Delta-T
°C
Wind Press
QNH
hPa
Press
MSL
hPa
Rain since
9am
mm
Dir  Spd
km/h
Gust
km/h
Spd
kts
Gust
kts
28/11:30pm 2.8 -0.7 1.2 89 0.6 SSE 9 11 5 6 1027.6 1027.7 0.0
28/11:00pm 3.8 -0.1 1.2 83 1.0 SE 11 13 6 7 1027.6 1027.7 0.0
28/10:30pm 4.0 1.1 1.2 82 1.1 SSW 6 9 3 5 1027.4 1027.5 0.0
28/10:00pm 4.3 2.5 1.0 79 1.3 CALM 0 0 0 0 1027.4 1027.5 0.0
28/09:30pm 5.3 3.8 3.0 85 1.0 CALM 0 0 0 0 1027.2 1027.3 0.0
28/09:00pm 5.0 3.3 2.0 81 1.2 CALM 0 0 0 0 1027.1 1027.2 0.0
28/08:30pm 6.4 4.4 2.5 76 1.6 WNW 2 9 1 5 1027.1 1027.2 0.0
28/08:00pm 6.6 3.8 2.1 73 1.8 W 6 7 3 4 1026.9 1027.0 0.0
28/07:30pm 7.0 4.2 1.9 70 2.1 W 6 9 3 5 1026.7 1026.8 0.0
28/07:00pm 8.2 3.7 2.4 67 2.4 WSW 15 17 8 9 1026.2 1026.3 0.0
28/06:30pm 9.5 5.4 2.4 61 3.0 W 13 15 7 8 1025.7 1025.8 0.0
28/06:00pm 10.1 6.5 2.7 60 3.2 W 11 15 6 8 1025.3 1025.4 0.0
28/05:30pm 10.8 7.5 2.4 56 3.6 W 9 11 5 6 1024.9 1025.0 0.0
28/05:00pm 11.8 7.4 2.5 53 4.0 W 15 19 8 10 1024.5 1024.6 0.0
28/04:30pm 13.4 9.3 2.3 47 4.9 W 13 20 7 11 1024.2 1024.3 0.0
28/04:00pm 14.5 9.3 2.7 45 5.2 W 19 22 10 12 1024.0 1024.1 0.0
28/03:30pm 15.2 9.4 2.4 42 5.7 WSW 22 30 12 16 1023.8 1023.9 0.0
28/03:00pm 15.6 10.2 2.4 41 5.9 W 20 28 11 15 1023.3 1023.4 0.0
28/02:30pm 15.8 10.1 2.6 41 6.0 W 22 30 12 16 1023.0 1023.1 0.0
28/02:00pm 15.9 11.1 2.7 41 5.9 WSW 17 26 9 14 1022.9 1023.0 0.0
28/01:30pm 16.0 11.3 3.4 43 5.8 WSW 17 22 9 12 1022.9 1023.0 0.0
28/01:00pm 15.5 10.3 2.7 42 5.7 WSW 19 28 10 15 1022.9 1023.0 0.0
28/12:30pm 14.9 9.5 2.4 43 5.6 WSW 20 32 11 17 1023.2 1023.3 0.0
28/12:00pm 14.3 9.0 1.6 42 5.5 WSW 19 26 10 14 1023.2 1023.3 0.0
28/11:30am 14.3 8.9 2.5 45 5.2 WSW 20 30 11 16 1023.6 1023.7 0.0
28/11:00am 13.9 8.8 2.8 47 4.9 WSW 19 26 10 14 1024.1 1024.2 0.0
28/10:30am 12.6 6.4 1.9 48 4.6 SW 24 32 13 17 1024.3 1024.4 0.0
28/10:00am 12.0 5.7 1.3 48 4.5 SW 24 35 13 19 1024.4 1024.5 0.0
28/09:30am 11.6 6.7 1.8 51 4.2 SW 17 20 9 11 1024.2 1024.3 0.0
28/09:00am 10.8 7.0 1.6 53 3.9 SSW 11 20 6 11 1023.7 1023.8 0.2
28/08:30am 9.5 6.1 1.9 59 3.2 SSW 9 17 5 9 1023.5 1023.6 0.2
28/08:00am 8.7 4.4 1.1 59 3.1 SSW 13 20 7 11 1023.0 1023.1 0.2
28/07:30am 7.8 4.3 1.2 63 2.7 SW 9 17 5 9 1022.7 1022.8 0.2
28/07:00am 7.5 2.9 1.4 65 2.5 SW 15 19 8 10 1022.1 1022.2 0.2
28/06:30am 7.7 3.8 1.1 63 2.7 SW 11 19 6 10 1021.7 1021.8 0.2
28/06:00am 7.1 4.0 1.2 66 2.4 SSE 7 9 4 5 1021.2 1021.3 0.2
28/05:30am 6.8 4.5 0.7 65 2.4 SW 2 6 1 3 1020.7 1020.8 0.2
28/05:00am 6.6 3.4 0.7 66 2.3 SE 7 11 4 6 1020.3 1020.4 0.2
28/04:30am 7.8 3.5 1.2 63 2.7 SW 13 19 7 10 1019.8 1019.9 0.2
28/04:00am 7.3 3.8 1.2 65 2.5 SSW 9 19 5 10 1019.6 1019.7 0.2
28/03:30am 7.7 3.8 0.9 62 2.7 SSW 11 20 6 11 1019.3 1019.4 0.2
28/03:00am 8.3 3.6 1.0 60 3.0 WSW 15 24 8 13 1019.1 1019.1 0.2
28/02:30am 8.2 3.9 0.9 60 3.0 WSW 13 19 7 10 1018.8 1018.8 0.2
28/02:00am 8.8 3.4 1.0 58 3.2 WSW 19 28 10 15 1018.5 1018.5 0.2
28/01:30am 8.6 2.9 0.8 58 3.2 WSW 20 28 11 15 1018.2 1018.2 0.2
28/01:00am 8.8 3.4 1.0 58 3.2 WSW 19 33 10 18 1018.2 1018.2 0.2
28/12:30am 8.8 2.4 1.0 58 3.2 WSW 24 32 13 17 1018.3 1018.3 0.2
28/12:00am 8.7 3.1 1.1 59 3.1 WSW 20 28 11 15 1018.4 1018.4 0.2
 
Date/Time
EST
Temp
°C
App
Temp
°C
Dew
Point
°C
Rel
Hum
%
Delta-T
°C
Wind Press
QNH
hPa
Press
MSL
hPa
Rain since
9am
mm
Dir  Spd
km/h
Gust
km/h
Spd
kts
Gust
kts
27/11:30pm 8.9 3.9 1.3 59 3.1 WSW 17 26 9 14 1018.5 1018.5 0.2
27/11:00pm 9.3 3.7 1.5 58 3.2 WSW 20 33 11 18 1018.5 1018.5 0.2
27/10:30pm 9.7 4.7 1.6 57 3.4 SW 17 24 9 13 1018.3 1018.3 0.2
27/10:00pm 9.8 5.2 1.7 57 3.4 SW 15 22 8 12 1017.9 1017.9 0.2
27/09:30pm 9.9 5.4 2.0 58 3.3 SSW 15 24 8 13 1017.5 1017.5 0.2
27/09:00pm 9.8 6.5 2.2 59 3.2 SSW 9 15 5 8 1017.2 1017.2 0.2
27/08:30pm 9.4 6.0 2.0 60 3.1 WSW 9 13 5 7 1016.9 1016.9 0.2
27/08:00pm 9.5 5.8 2.1 60 3.1 WSW 11 15 6 8 1016.8 1016.8 0.2
27/07:30pm 9.7 6.0 2.3 60 3.1 WSW 11 13 6 7 1016.7 1016.7 0.2
27/07:00pm 9.4 6.1 2.3 61 3.0 SW 9 11 5 6 1016.5 1016.5 0.2
27/06:30pm 10.0 5.9 2.1 58 3.3 WSW 13 17 7 9 1016.2 1016.2 0.2
27/06:00pm 10.0 6.0 2.6 60 3.2 W 13 17 7 9 1015.7 1015.7 0.2
27/05:30pm 10.1 6.5 2.9 61 3.1 W 11 15 6 8 1015.5 1015.5 0.2
27/05:00pm 10.4 6.5 3.2 61 3.1 WSW 13 17 7 9 1015.1 1015.2 0.2
27/04:30pm 10.9 6.5 2.7 57 3.6 WSW 15 20 8 11 1014.6 1014.7 0.2
27/04:00pm 11.1 5.9 2.7 56 3.6 WSW 19 24 10 13 1014.4 1014.5 0.2
27/03:30pm 11.2 5.9 2.8 56 3.7 WSW 20 28 11 15 1014.2 1014.3 0.2
27/03:00pm 11.2 6.0 3.5 59 3.4 W 20 32 11 17 1013.9 1014.0 0.2
27/02:30pm 11.7 5.6 3.0 55 3.8 WSW 24 33 13 18 1013.6 1013.7 0.2
27/02:00pm 12.0 6.8 3.8 57 3.7 WSW 20 30 11 16 1013.4 1013.5 0.2
27/01:30pm 12.0 7.1 4.2 59 3.5 WSW 19 26 10 14 1013.2 1013.3 0.2
27/01:00pm 12.3 7.4 4.3 58 3.6 SW 19 35 10 19 1013.2 1013.3 0.2
27/12:30pm 11.7 6.9 4.4 61 3.3 WSW 19 24 10 13 1013.3 1013.4 0.2
27/12:00pm 11.2 6.8 4.7 64 3.0 W 17 24 9 13 1013.5 1013.6 0.2
27/11:30am 10.1 5.3 4.7 69 2.4 W 19 24 10 13 1014.2 1014.3 0.2
27/11:00am 9.5 6.3 4.9 73 2.1 W 11 17 6 9 1014.4 1014.5 0.2
27/10:30am 8.8 4.8 4.8 76 1.8 W 15 20 8 11 1014.8 1014.9 0.2
27/10:00am 8.2 5.4 5.1 81 1.4 WNW 9 11 5 6 1015.3 1015.4 0.2
27/09:30am 7.6 4.8 5.2 85 1.1 WNW 9 13 5 7 1015.6 1015.6 0.2
27/09:00am 7.3 4.5 5.1 86 1.0 NNW 9 13 5 7 1015.8 1015.8 0.8
27/08:30am 7.2 4.5 5.5 89 0.8 NNW 9 11 5 6 1015.8 1015.8 0.6
27/08:00am 7.2 5.6 4.7 84 1.1 SSW 2 9 1 5 1015.7 1015.7 0.4
27/07:30am 7.4 3.4 4.7 83 1.2 SW 15 24 8 13 1015.3 1015.4 0.4
27/07:00am 7.5 3.9 5.0 84 1.1 W 13 19 7 10 1015.7 1015.7 0.4
27/06:30am 7.9 4.6 4.5 79 1.5 W 11 17 6 9 1015.6 1015.6 0.2
27/06:00am 7.7 5.8 4.8 82 1.3 W 4 9 2 5 1015.1 1015.2 0.0
27/05:30am 6.5 5.2 5.8 95 0.3 N 2 7 1 4 1015.0 1015.1 0.0
27/05:00am 6.4 4.3 5.7 95 0.3 N 6 7 3 4 1014.7 1014.8 0.0
27/04:30am 6.3 5.3 5.4 94 0.4 CALM 0 0 0 0 1014.4 1014.5 0.0
27/04:00am 6.4 4.6 5.2 92 0.5 NW 4 7 2 4 1014.7 1014.8 0.0
27/03:30am 6.3 5.1 4.8 90 0.7 CALM 0 4 0 2 1014.5 1014.6 0.0
27/03:00am 6.2 5.0 4.5 89 0.7 CALM 0 4 0 2 1014.8 1014.9 0.0
27/02:30am 6.2 4.7 4.8 91 0.6 S 2 7 1 4 1014.9 1015.0 0.0
27/02:00am 6.1 4.9 4.7 91 0.6 CALM 0 0 0 0 1015.3 1015.4 0.0
27/01:30am 5.9 4.7 4.5 91 0.6 CALM 0 0 0 0 1015.5 1015.5 0.0
27/01:00am 6.3 5.1 4.5 88 0.8 CALM 0 0 0 0 1015.2 1015.3 0.0
27/12:30am 6.4 5.2 4.4 87 0.9 CALM 0 0 0 0 1015.7 1015.7 0.0
27/12:00am 6.2 5.1 5.3 94 0.4 CALM 0 0 0 0 1016.0 1016.0 0.0
 
Date/Time
EST
Temp
°C
App
Temp
°C
Dew
Point
°C
Rel
Hum
%
Delta-T
°C
Wind Press
QNH
hPa
Press
MSL
hPa
Rain since
9am
mm
Dir  Spd
km/h
Gust
km/h
Spd
kts
Gust
kts
26/11:30pm 6.2 5.1 5.0 92 0.5 CALM 0 0 0 0 1015.8 1015.8 0.0
26/11:00pm 5.9 4.3 4.4 90 0.6 WNW 2 7 1 4 1015.8 1015.8 0.0
26/10:30pm 6.5 5.2 4.2 85 1.0 CALM 0 0 0 0 1015.6 1015.6 0.0
26/10:00pm 6.5 4.1 4.2 85 1.0 S 6 9 3 5 1016.0 1016.0 0.0
26/09:30pm 6.6 4.1 4.8 88 0.8 S 7 9 4 5 1016.3 1016.3 0.0
26/09:00pm 6.8 5.7 5.0 88 0.8 CALM 0 7 0 4 1016.8 1016.8 0.0
26/08:30pm 7.5 6.4 5.0 84 1.1 CALM 0 0 0 0 1017.2 1017.2 0.0
26/08:00pm 7.8 6.8 5.4 85 1.1 CALM 0 0 0 0 1017.6 1017.6 0.0
26/07:30pm 7.9 6.8 5.2 83 1.2 CALM 0 0 0 0 1017.1 1017.1 0.0

Other Formats:

Comma delimited format used in spreadsheet applications
http://www.bom.gov.au/fwo/IDN60801/IDN60801.94755.axf

JavaScript Object Notation format (JSON) in row-major order
http://www.bom.gov.au/fwo/IDN60801/IDN60801.94755.json